sensor_id;sensor_type;location;lat;lon;timestamp;pressure;altitude;pressure_sealevel;temperature
78905;BMP280;68291;49.602;8.722;2023-05-28T00:00:25;99781.84;;;14.97
78905;BMP280;68291;49.602;8.722;2023-05-28T00:03:03;99786.56;;;14.90
78905;BMP280;68291;49.602;8.722;2023-05-28T00:05:53;99783.94;;;14.76
78905;BMP280;68291;49.602;8.722;2023-05-28T00:08:24;99785.78;;;14.74
78905;BMP280;68291;49.602;8.722;2023-05-28T00:10:59;99780.53;;;14.76
78905;BMP280;68291;49.602;8.722;2023-05-28T00:13:47;99777.94;;;14.76
78905;BMP280;68291;49.602;8.722;2023-05-28T00:16:26;99780.44;;;14.77
78905;BMP280;68291;49.602;8.722;2023-05-28T00:18:57;99780.59;;;14.74
78905;BMP280;68291;49.602;8.722;2023-05-28T00:21:31;99780.59;;;14.74
78905;BMP280;68291;49.602;8.722;2023-05-28T00:24:05;99783.75;;;14.79
78905;BMP280;68291;49.602;8.722;2023-05-28T00:26:45;99778.75;;;14.76
78905;BMP280;68291;49.602;8.722;2023-05-28T00:29:32;99785.16;;;14.71
78905;BMP280;68291;49.602;8.722;2023-05-28T00:32:59;99780.47;;;14.62
78905;BMP280;68291;49.602;8.722;2023-05-28T00:35:46;99778.91;;;14.60
78905;BMP280;68291;49.602;8.722;2023-05-28T00:38:38;99780.00;;;14.56
78905;BMP280;68291;49.602;8.722;2023-05-28T00:41:36;99766.31;;;14.54
78905;BMP280;68291;49.602;8.722;2023-05-28T00:44:27;99773.16;;;14.55
78905;BMP280;68291;49.602;8.722;2023-05-28T00:46:59;99770.56;;;14.55
78905;BMP280;68291;49.602;8.722;2023-05-28T00:49:32;99765.94;;;14.60
78905;BMP280;68291;49.602;8.722;2023-05-28T00:52:25;99763.06;;;14.64
78905;BMP280;68291;49.602;8.722;2023-05-28T00:55:13;99764.84;;;14.64
78905;BMP280;68291;49.602;8.722;2023-05-28T00:58:01;99767.34;;;14.65
78905;BMP280;68291;49.602;8.722;2023-05-28T01:00:37;99757.06;;;14.64
78905;BMP280;68291;49.602;8.722;2023-05-28T01:03:33;99767.91;;;14.70
78905;BMP280;68291;49.602;8.722;2023-05-28T01:06:25;99770.59;;;14.69
78905;BMP280;68291;49.602;8.722;2023-05-28T01:09:16;99766.41;;;14.66
78905;BMP280;68291;49.602;8.722;2023-05-28T01:11:48;99761.34;;;14.65
78905;BMP280;68291;49.602;8.722;2023-05-28T01:14:51;99772.53;;;14.65
78905;BMP280;68291;49.602;8.722;2023-05-28T01:17:24;99764.91;;;14.62
78905;BMP280;68291;49.602;8.722;2023-05-28T01:20:14;99755.75;;;14.57
78905;BMP280;68291;49.602;8.722;2023-05-28T01:23:37;99755.94;;;14.54
78905;BMP280;68291;49.602;8.722;2023-05-28T01:26:45;99754.59;;;14.47
78905;BMP280;68291;49.602;8.722;2023-05-28T01:29:41;99750.50;;;14.43
78905;BMP280;68291;49.602;8.722;2023-05-28T01:32:12;99752.94;;;14.46
78905;BMP280;68291;49.602;8.722;2023-05-28T01:35:03;99752.19;;;14.44
78905;BMP280;68291;49.602;8.722;2023-05-28T01:37:40;99756.63;;;14.42
78905;BMP280;68291;49.602;8.722;2023-05-28T01:41:07;99749.13;;;14.38
78905;BMP280;68291;49.602;8.722;2023-05-28T01:43:54;99748.03;;;14.41
78905;BMP280;68291;49.602;8.722;2023-05-28T01:46:44;99749.13;;;14.38
78905;BMP280;68291;49.602;8.722;2023-05-28T01:49:21;99748.19;;;14.38
78905;BMP280;68291;49.602;8.722;2023-05-28T01:52:06;99749.94;;;14.38
78905;BMP280;68291;49.602;8.722;2023-05-28T01:54:41;99755.47;;;14.32
78905;BMP280;68291;49.602;8.722;2023-05-28T01:57:16;99745.28;;;14.29
78905;BMP280;68291;49.602;8.722;2023-05-28T01:59:46;99745.28;;;14.29
78905;BMP280;68291;49.602;8.722;2023-05-28T02:02:38;99746.22;;;14.28
78905;BMP280;68291;49.602;8.722;2023-05-28T02:05:15;99747.81;;;14.31
78905;BMP280;68291;49.602;8.722;2023-05-28T02:07:46;99737.44;;;14.31
78905;BMP280;68291;49.602;8.722;2023-05-28T02:10:31;99740.44;;;14.23
78905;BMP280;68291;49.602;8.722;2023-05-28T02:13:37;99737.13;;;14.06
78905;BMP280;68291;49.602;8.722;2023-05-28T02:16:25;99744.25;;;14.03
78905;BMP280;68291;49.602;8.722;2023-05-28T02:19:15;99740.81;;;14.02
78905;BMP280;68291;49.602;8.722;2023-05-28T02:22:08;99743.63;;;13.98
78905;BMP280;68291;49.602;8.722;2023-05-28T02:25:05;99731.28;;;13.87
78905;BMP280;68291;49.602;8.722;2023-05-28T02:27:40;99737.06;;;13.77
78905;BMP280;68291;49.602;8.722;2023-05-28T02:30:36;99732.78;;;13.76
78905;BMP280;68291;49.602;8.722;2023-05-28T02:33:19;99729.13;;;13.80
78905;BMP280;68291;49.602;8.722;2023-05-28T02:35:54;99730.78;;;13.81
78905;BMP280;68291;49.602;8.722;2023-05-28T02:38:25;99720.53;;;13.79
78905;BMP280;68291;49.602;8.722;2023-05-28T02:41:06;99724.13;;;13.77
78905;BMP280;68291;49.602;8.722;2023-05-28T02:43:39;99727.94;;;13.70
78905;BMP280;68291;49.602;8.722;2023-05-28T02:46:31;99718.69;;;13.66
78905;BMP280;68291;49.602;8.722;2023-05-28T02:49:06;99720.66;;;13.61
78905;BMP280;68291;49.602;8.722;2023-05-28T02:52:09;99716.09;;;13.51
78905;BMP280;68291;49.602;8.722;2023-05-28T02:54:50;99722.84;;;13.53
78905;BMP280;68291;49.602;8.722;2023-05-28T02:57:27;99725.19;;;13.58
78905;BMP280;68291;49.602;8.722;2023-05-28T03:00:07;99719.34;;;13.54
78905;BMP280;68291;49.602;8.722;2023-05-28T03:03:03;99722.00;;;13.53
78905;BMP280;68291;49.602;8.722;2023-05-28T03:05:43;99724.50;;;13.54
78905;BMP280;68291;49.602;8.722;2023-05-28T03:08:38;99723.34;;;13.44
78905;BMP280;68291;49.602;8.722;2023-05-28T03:11:29;99730.91;;;13.32
78905;BMP280;68291;49.602;8.722;2023-05-28T03:14:11;99725.16;;;13.27
78905;BMP280;68291;49.602;8.722;2023-05-28T03:16:54;99738.47;;;13.20
78905;BMP280;68291;49.602;8.722;2023-05-28T03:19:36;99736.06;;;13.17
78905;BMP280;68291;49.602;8.722;2023-05-28T03:22:29;99737.38;;;13.08
78905;BMP280;68291;49.602;8.722;2023-05-28T03:25:15;99733.19;;;13.06
78905;BMP280;68291;49.602;8.722;2023-05-28T03:28:07;99731.28;;;13.09
78905;BMP280;68291;49.602;8.722;2023-05-28T03:31:01;99742.69;;;13.05
78905;BMP280;68291;49.602;8.722;2023-05-28T03:33:52;99741.34;;;12.99
78905;BMP280;68291;49.602;8.722;2023-05-28T03:36:46;99740.34;;;13.01
78905;BMP280;68291;49.602;8.722;2023-05-28T03:39:41;99734.28;;;13.02
78905;BMP280;68291;49.602;8.722;2023-05-28T03:42:15;99734.50;;;12.98
78905;BMP280;68291;49.602;8.722;2023-05-28T03:44:50;99734.56;;;12.96
78905;BMP280;68291;49.602;8.722;2023-05-28T03:47:20;99725.16;;;12.95
78905;BMP280;68291;49.602;8.722;2023-05-28T03:50:04;99731.09;;;12.97
78905;BMP280;68291;49.602;8.722;2023-05-28T03:52:50;99735.16;;;13.01
78905;BMP280;68291;49.602;8.722;2023-05-28T03:55:32;99732.75;;;12.98
78905;BMP280;68291;49.602;8.722;2023-05-28T03:58:11;99725.06;;;12.97
78905;BMP280;68291;49.602;8.722;2023-05-28T04:00:45;99737.34;;;12.93
78905;BMP280;68291;49.602;8.722;2023-05-28T04:03:17;99734.75;;;12.93
78905;BMP280;68291;49.602;8.722;2023-05-28T04:05:53;99733.81;;;12.94
78905;BMP280;68291;49.602;8.722;2023-05-28T04:08:46;99736.41;;;12.94
78905;BMP280;68291;49.602;8.722;2023-05-28T04:11:30;99729.47;;;12.95
78905;BMP280;68291;49.602;8.722;2023-05-28T04:14:22;99732.16;;;12.93
78905;BMP280;68291;49.602;8.722;2023-05-28T04:17:04;99729.56;;;12.93
78905;BMP280;68291;49.602;8.722;2023-05-28T04:19:46;99732.94;;;12.95
78905;BMP280;68291;49.602;8.722;2023-05-28T04:22:29;99730.34;;;12.95
78905;BMP280;68291;49.602;8.722;2023-05-28T04:25:28;99735.16;;;13.01
78905;BMP280;68291;49.602;8.722;2023-05-28T04:28:03;99735.03;;;13.04
78905;BMP280;68291;49.602;8.722;2023-05-28T04:30:54;99730.75;;;13.03
78905;BMP280;68291;49.602;8.722;2023-05-28T04:33:41;99738.38;;;13.06
78905;BMP280;68291;49.602;8.722;2023-05-28T04:36:34;99730.28;;;13.12
78905;BMP280;68291;49.602;8.722;2023-05-28T04:39:16;99736.81;;;13.19
78905;BMP280;68291;49.602;8.722;2023-05-28T04:42:06;99736.66;;;13.22
78905;BMP280;68291;49.602;8.722;2023-05-28T04:44:58;99738.25;;;13.24
78905;BMP280;68291;49.602;8.722;2023-05-28T04:47:31;99738.81;;;13.29
78905;BMP280;68291;49.602;8.722;2023-05-28T04:50:27;99737.38;;;13.40
78905;BMP280;68291;49.602;8.722;2023-05-28T04:53:25;99730.25;;;13.44
78905;BMP280;68291;49.602;8.722;2023-05-28T04:56:05;99737.63;;;13.51
78905;BMP280;68291;49.602;8.722;2023-05-28T04:58:43;99741.38;;;13.61
78905;BMP280;68291;49.602;8.722;2023-05-28T05:01:26;99741.81;;;13.69
78905;BMP280;68291;49.602;8.722;2023-05-28T05:03:57;99744.91;;;13.75
78905;BMP280;68291;49.602;8.722;2023-05-28T05:06:30;99745.31;;;13.83
78905;BMP280;68291;49.602;8.722;2023-05-28T05:09:31;99745.72;;;13.91
78905;BMP280;68291;49.602;8.722;2023-05-28T05:12:26;99745.91;;;14.03
78905;BMP280;68291;49.602;8.722;2023-05-28T05:15:08;99742.81;;;14.12
78905;BMP280;68291;49.602;8.722;2023-05-28T05:17:41;99742.47;;;14.18
78905;BMP280;68291;49.602;8.722;2023-05-28T05:20:31;99740.09;;;14.29
78905;BMP280;68291;49.602;8.722;2023-05-28T05:23:24;99742.94;;;14.40
78905;BMP280;68291;49.602;8.722;2023-05-28T05:26:06;99749.16;;;14.51
78905;BMP280;68291;49.602;8.722;2023-05-28T05:28:47;99748.38;;;14.65
78905;BMP280;68291;49.602;8.722;2023-05-28T05:31:44;99740.63;;;14.78
78905;BMP280;68291;49.602;8.722;2023-05-28T05:34:43;99740.75;;;14.91
78905;BMP280;68291;49.602;8.722;2023-05-28T05:37:35;99740.13;;;15.01
78905;BMP280;68291;49.602;8.722;2023-05-28T05:40:45;99748.75;;;15.15
78905;BMP280;68291;49.602;8.722;2023-05-28T05:44:04;99748.03;;;15.27
78905;BMP280;68291;49.602;8.722;2023-05-28T05:47:00;99740.50;;;15.37
78905;BMP280;68291;49.602;8.722;2023-05-28T05:49:34;99734.75;;;15.45
78905;BMP280;68291;49.602;8.722;2023-05-28T05:52:28;99749.59;;;15.57
78905;BMP280;68291;49.602;8.722;2023-05-28T05:55:17;99753.28;;;15.67
78905;BMP280;68291;49.602;8.722;2023-05-28T05:58:10;99749.09;;;15.78
78905;BMP280;68291;49.602;8.722;2023-05-28T06:00:48;99747.66;;;15.87
78905;BMP280;68291;49.602;8.722;2023-05-28T06:03:39;99749.59;;;15.97
78905;BMP280;68291;49.602;8.722;2023-05-28T06:06:39;99749.88;;;16.07
78905;BMP280;68291;49.602;8.722;2023-05-28T06:09:30;99743.06;;;16.18
78905;BMP280;68291;49.602;8.722;2023-05-28T06:12:11;99743.13;;;16.30
78905;BMP280;68291;49.602;8.722;2023-05-28T06:15:07;99734.59;;;16.41
78905;BMP280;68291;49.602;8.722;2023-05-28T06:18:06;99736.41;;;16.52
78905;BMP280;68291;49.602;8.722;2023-05-28T06:21:05;99734.78;;;16.64
78905;BMP280;68291;49.602;8.722;2023-05-28T06:23:52;99733.84;;;16.77
78905;BMP280;68291;49.602;8.722;2023-05-28T06:26:23;99744.28;;;16.89
78905;BMP280;68291;49.602;8.722;2023-05-28T06:29:03;99746.66;;;17.05
78905;BMP280;68291;49.602;8.722;2023-05-28T06:31:36;99733.63;;;17.18
78905;BMP280;68291;49.602;8.722;2023-05-28T06:34:23;99739.50;;;17.33
78905;BMP280;68291;49.602;8.722;2023-05-28T06:37:25;99730.56;;;17.49
78905;BMP280;68291;49.602;8.722;2023-05-28T06:40:15;99736.34;;;17.65
78905;BMP280;68291;49.602;8.722;2023-05-28T06:42:46;99733.94;;;17.74
78905;BMP280;68291;49.602;8.722;2023-05-28T06:45:53;99736.38;;;17.88
78905;BMP280;68291;49.602;8.722;2023-05-28T06:48:31;99739.88;;;17.99
78905;BMP280;68291;49.602;8.722;2023-05-28T06:51:14;99734.56;;;18.13
78905;BMP280;68291;49.602;8.722;2023-05-28T06:53:54;99737.59;;;18.30
78905;BMP280;68291;49.602;8.722;2023-05-28T06:56:33;99736.50;;;18.45
78905;BMP280;68291;49.602;8.722;2023-05-28T06:59:22;99736.53;;;18.56
78905;BMP280;68291;49.602;8.722;2023-05-28T07:02:26;99730.28;;;18.69
78905;BMP280;68291;49.602;8.722;2023-05-28T07:05:25;99733.66;;;18.82
78905;BMP280;68291;49.602;8.722;2023-05-28T07:08:10;99735.34;;;18.94
78905;BMP280;68291;49.602;8.722;2023-05-28T07:10:50;99725.78;;;19.05
78905;BMP280;68291;49.602;8.722;2023-05-28T07:13:21;99724.00;;;19.17
78905;BMP280;68291;49.602;8.722;2023-05-28T07:16:17;99729.13;;;19.29
78905;BMP280;68291;49.602;8.722;2023-05-28T07:19:05;99730.78;;;19.41
78905;BMP280;68291;49.602;8.722;2023-05-28T07:21:52;99735.16;;;19.51
78905;BMP280;68291;49.602;8.722;2023-05-28T07:24:33;99734.22;;;19.63
78905;BMP280;68291;49.602;8.722;2023-05-28T07:27:55;99734.78;;;19.77
78905;BMP280;68291;49.602;8.722;2023-05-28T07:30:34;99739.09;;;19.89
78905;BMP280;68291;49.602;8.722;2023-05-28T07:33:09;99733.84;;;20.00
78905;BMP280;68291;49.602;8.722;2023-05-28T07:35:58;99737.13;;;20.13
78905;BMP280;68291;49.602;8.722;2023-05-28T07:38:48;99744.69;;;20.26
78905;BMP280;68291;49.602;8.722;2023-05-28T07:41:31;99743.72;;;20.38
78905;BMP280;68291;49.602;8.722;2023-05-28T07:44:26;99730.56;;;20.49
78905;BMP280;68291;49.602;8.722;2023-05-28T07:46:58;99738.41;;;20.60
78905;BMP280;68291;49.602;8.722;2023-05-28T07:49:48;99733.81;;;20.73
78905;BMP280;68291;49.602;8.722;2023-05-28T07:52:29;99729.25;;;20.86
78905;BMP280;68291;49.602;8.722;2023-05-28T07:55:21;99730.56;;;21.00
78905;BMP280;68291;49.602;8.722;2023-05-28T07:58:00;99715.84;;;21.09
78905;BMP280;68291;49.602;8.722;2023-05-28T08:00:41;99720.66;;;21.24
78905;BMP280;68291;49.602;8.722;2023-05-28T08:03:39;99724.81;;;21.36
78905;BMP280;68291;49.602;8.722;2023-05-28T08:06:35;99724.88;;;21.45
78905;BMP280;68291;49.602;8.722;2023-05-28T08:09:19;99714.19;;;21.58
78905;BMP280;68291;49.602;8.722;2023-05-28T08:11:55;99720.31;;;21.67
78905;BMP280;68291;49.602;8.722;2023-05-28T08:14:47;99717.28;;;21.81
78905;BMP280;68291;49.602;8.722;2023-05-28T08:17:25;99717.75;;;21.96
78905;BMP280;68291;49.602;8.722;2023-05-28T08:20:12;99718.31;;;22.08
78905;BMP280;68291;49.602;8.722;2023-05-28T08:22:55;99716.44;;;22.20
78905;BMP280;68291;49.602;8.722;2023-05-28T08:25:34;99712.03;;;22.30
78905;BMP280;68291;49.602;8.722;2023-05-28T08:28:24;99696.16;;;22.40
78905;BMP280;68291;49.602;8.722;2023-05-28T08:31:07;99695.31;;;22.49
78905;BMP280;68291;49.602;8.722;2023-05-28T08:34:43;99693.50;;;22.59
78905;BMP280;68291;49.602;8.722;2023-05-28T08:37:35;99695.00;;;22.71
78905;BMP280;68291;49.602;8.722;2023-05-28T08:40:13;99681.34;;;22.77
78905;BMP280;68291;49.602;8.722;2023-05-28T08:42:47;99693.09;;;22.92
78905;BMP280;68291;49.602;8.722;2023-05-28T08:45:36;99682.41;;;23.02
78905;BMP280;68291;49.602;8.722;2023-05-28T08:48:22;99683.75;;;23.16
78905;BMP280;68291;49.602;8.722;2023-05-28T08:50:58;99676.50;;;23.27
78905;BMP280;68291;49.602;8.722;2023-05-28T08:53:47;99681.06;;;23.35
78905;BMP280;68291;49.602;8.722;2023-05-28T08:56:31;99677.38;;;23.45
78905;BMP280;68291;49.602;8.722;2023-05-28T08:59:07;99667.81;;;23.53
78905;BMP280;68291;49.602;8.722;2023-05-28T09:02:04;99661.03;;;23.60
78905;BMP280;68291;49.602;8.722;2023-05-28T09:04:58;99657.53;;;23.69
78905;BMP280;68291;49.602;8.722;2023-05-28T09:07:51;99661.22;;;23.76
78905;BMP280;68291;49.602;8.722;2023-05-28T09:10:23;99656.19;;;23.82
78905;BMP280;68291;49.602;8.722;2023-05-28T09:13:23;99653.47;;;23.92
78905;BMP280;68291;49.602;8.722;2023-05-28T09:16:13;99652.88;;;23.98
78905;BMP280;68291;49.602;8.722;2023-05-28T09:19:16;99648.53;;;24.06
78905;BMP280;68291;49.602;8.722;2023-05-28T09:21:54;99640.56;;;24.15
78905;BMP280;68291;49.602;8.722;2023-05-28T09:24:34;99644.81;;;24.26
78905;BMP280;68291;49.602;8.722;2023-05-28T09:27:35;99637.66;;;24.36
78905;BMP280;68291;49.602;8.722;2023-05-28T09:30:13;99641.69;;;24.47
78905;BMP280;68291;49.602;8.722;2023-05-28T09:33:02;99628.94;;;24.60
78905;BMP280;68291;49.602;8.722;2023-05-28T09:35:40;99623.75;;;24.68
78905;BMP280;68291;49.602;8.722;2023-05-28T09:38:38;99625.13;;;24.80
78905;BMP280;68291;49.602;8.722;2023-05-28T09:41:35;99625.75;;;24.91
78905;BMP280;68291;49.602;8.722;2023-05-28T09:44:32;99621.03;;;25.03
78905;BMP280;68291;49.602;8.722;2023-05-28T09:47:14;99623.25;;;25.15
78905;BMP280;68291;49.602;8.722;2023-05-28T09:50:07;99622.44;;;25.22
78905;BMP280;68291;49.602;8.722;2023-05-28T09:52:48;99616.84;;;25.25
78905;BMP280;68291;49.602;8.722;2023-05-28T09:55:29;99614.56;;;25.30
78905;BMP280;68291;49.602;8.722;2023-05-28T09:58:50;99614.91;;;25.35
78905;BMP280;68291;49.602;8.722;2023-05-28T10:01:37;99605.91;;;25.45
78905;BMP280;68291;49.602;8.722;2023-05-28T10:04:23;99609.75;;;25.59
78905;BMP280;68291;49.602;8.722;2023-05-28T10:07:13;99612.91;;;25.70
78905;BMP280;68291;49.602;8.722;2023-05-28T10:10:01;99615.72;;;25.77
78905;BMP280;68291;49.602;8.722;2023-05-28T10:12:58;99610.47;;;25.84
78905;BMP280;68291;49.602;8.722;2023-05-28T10:15:56;99612.81;;;25.95
78905;BMP280;68291;49.602;8.722;2023-05-28T10:18:37;99608.03;;;25.99
78905;BMP280;68291;49.602;8.722;2023-05-28T10:21:28;99614.47;;;26.04
78905;BMP280;68291;49.602;8.722;2023-05-28T10:24:25;99608.38;;;26.12
78905;BMP280;68291;49.602;8.722;2023-05-28T10:27:15;99603.13;;;26.19
78905;BMP280;68291;49.602;8.722;2023-05-28T10:30:10;99609.56;;;26.25
78905;BMP280;68291;49.602;8.722;2023-05-28T10:33:04;99606.75;;;26.26
78905;BMP280;68291;49.602;8.722;2023-05-28T10:35:52;99609.56;;;26.25
78905;BMP280;68291;49.602;8.722;2023-05-28T10:38:29;99609.72;;;26.31
78905;BMP280;68291;49.602;8.722;2023-05-28T10:41:08;99605.28;;;26.40
78905;BMP280;68291;49.602;8.722;2023-05-28T10:43:47;99602.28;;;26.50
78905;BMP280;68291;49.602;8.722;2023-05-28T10:46:35;99600.78;;;26.56
78905;BMP280;68291;49.602;8.722;2023-05-28T10:49:58;99602.63;;;26.63
78905;BMP280;68291;49.602;8.722;2023-05-28T10:53:04;99596.47;;;26.71
78905;BMP280;68291;49.602;8.722;2023-05-28T10:55:51;99594.69;;;26.79
78905;BMP280;68291;49.602;8.722;2023-05-28T10:58:44;99588.22;;;26.82
78905;BMP280;68291;49.602;8.722;2023-05-28T11:01:30;99588.06;;;26.83
78905;BMP280;68291;49.602;8.722;2023-05-28T11:04:33;99589.03;;;26.82
78905;BMP280;68291;49.602;8.722;2023-05-28T11:07:21;99575.34;;;26.79
78905;BMP280;68291;49.602;8.722;2023-05-28T11:10:09;99581.13;;;26.82
78905;BMP280;68291;49.602;8.722;2023-05-28T11:12:46;99578.75;;;26.95
78905;BMP280;68291;49.602;8.722;2023-05-28T11:15:46;99581.53;;;27.09
78905;BMP280;68291;49.602;8.722;2023-05-28T11:19:03;99575.38;;;27.17
78905;BMP280;68291;49.602;8.722;2023-05-28T11:21:51;99569.53;;;27.29
78905;BMP280;68291;49.602;8.722;2023-05-28T11:24:56;99574.19;;;27.27
78905;BMP280;68291;49.602;8.722;2023-05-28T11:27:39;99573.13;;;27.36
78905;BMP280;68291;49.602;8.722;2023-05-28T11:30:30;99581.22;;;27.50
78905;BMP280;68291;49.602;8.722;2023-05-28T11:33:17;99575.69;;;27.59
78905;BMP280;68291;49.602;8.722;2023-05-28T11:36:15;99578.13;;;27.69
78905;BMP280;68291;49.602;8.722;2023-05-28T11:39:03;99570.44;;;27.82
78905;BMP280;68291;49.602;8.722;2023-05-28T11:41:56;99579.94;;;27.98
78905;BMP280;68291;49.602;8.722;2023-05-28T11:44:52;99568.94;;;28.09
78905;BMP280;68291;49.602;8.722;2023-05-28T11:47:37;99562.38;;;28.20
78905;BMP280;68291;49.602;8.722;2023-05-28T11:50:36;99561.13;;;28.30
78905;BMP280;68291;49.602;8.722;2023-05-28T11:53:43;99556.03;;;28.43
78905;BMP280;68291;49.602;8.722;2023-05-28T11:56:26;99552.56;;;28.42
78905;BMP280;68291;49.602;8.722;2023-05-28T11:59:57;99548.63;;;28.38
78905;BMP280;68291;49.602;8.722;2023-05-28T12:02:44;99551.44;;;28.37
78905;BMP280;68291;49.602;8.722;2023-05-28T12:05:39;99554.19;;;28.29
78905;BMP280;68291;49.602;8.722;2023-05-28T12:08:19;99548.53;;;28.32
78905;BMP280;68291;49.602;8.722;2023-05-28T12:11:07;99549.66;;;28.37
78905;BMP280;68291;49.602;8.722;2023-05-28T12:13:47;99548.03;;;28.51
78905;BMP280;68291;49.602;8.722;2023-05-28T12:16:43;99539.75;;;28.68
78905;BMP280;68291;49.602;8.722;2023-05-28T12:19:45;99540.03;;;28.87
78905;BMP280;68291;49.602;8.722;2023-05-28T12:23:01;99544.97;;;28.90
78905;BMP280;68291;49.602;8.722;2023-05-28T12:25:52;99546.97;;;28.88
78905;BMP280;68291;49.602;8.722;2023-05-28T12:28:28;99551.16;;;28.97
78905;BMP280;68291;49.602;8.722;2023-05-28T12:31:02;99555.41;;;29.06
78905;BMP280;68291;49.602;8.722;2023-05-28T12:33:47;99557.03;;;29.07
78905;BMP280;68291;49.602;8.722;2023-05-28T12:36:25;99548.69;;;29.10
78905;BMP280;68291;49.602;8.722;2023-05-28T12:39:05;99548.25;;;29.21
78905;BMP280;68291;49.602;8.722;2023-05-28T12:41:47;99542.28;;;29.33
78905;BMP280;68291;49.602;8.722;2023-05-28T12:44:28;99535.13;;;29.48
78905;BMP280;68291;49.602;8.722;2023-05-28T12:47:01;99532.41;;;29.97
78905;BMP280;68291;49.602;8.722;2023-05-28T12:49:58;99528.00;;;30.85
78905;BMP280;68291;49.602;8.722;2023-05-28T12:52:42;99528.78;;;31.72
78905;BMP280;68291;49.602;8.722;2023-05-28T12:55:23;99525.19;;;32.43
78905;BMP280;68291;49.602;8.722;2023-05-28T12:57:59;99520.38;;;33.03
78905;BMP280;68291;49.602;8.722;2023-05-28T13:00:30;99503.78;;;33.45
78905;BMP280;68291;49.602;8.722;2023-05-28T13:03:10;99502.38;;;34.03
78905;BMP280;68291;49.602;8.722;2023-05-28T13:06:06;99509.41;;;34.28
78905;BMP280;68291;49.602;8.722;2023-05-28T13:08:58;99518.13;;;34.59
78905;BMP280;68291;49.602;8.722;2023-05-28T13:11:32;99510.53;;;34.81
78905;BMP280;68291;49.602;8.722;2023-05-28T13:14:18;99520.88;;;34.95
78905;BMP280;68291;49.602;8.722;2023-05-28T13:17:14;99509.56;;;35.28
78905;BMP280;68291;49.602;8.722;2023-05-28T13:20:08;99520.19;;;35.93
78905;BMP280;68291;49.602;8.722;2023-05-28T13:23:12;99502.00;;;36.35
78905;BMP280;68291;49.602;8.722;2023-05-28T13:25:45;99510.63;;;36.49
78905;BMP280;68291;49.602;8.722;2023-05-28T13:28:36;99514.72;;;36.74
78905;BMP280;68291;49.602;8.722;2023-05-28T13:31:10;99512.81;;;37.08
78905;BMP280;68291;49.602;8.722;2023-05-28T13:33:43;99519.72;;;37.55
78905;BMP280;68291;49.602;8.722;2023-05-28T13:36:38;99503.66;;;37.87
78905;BMP280;68291;49.602;8.722;2023-05-28T13:39:35;99511.34;;;37.95
78905;BMP280;68291;49.602;8.722;2023-05-28T13:42:12;99502.00;;;37.86
78905;BMP280;68291;49.602;8.722;2023-05-28T13:45:10;99507.66;;;37.57
78905;BMP280;68291;49.602;8.722;2023-05-28T13:47:56;99504.81;;;37.64
78905;BMP280;68291;49.602;8.722;2023-05-28T13:50:52;99501.22;;;37.58
78905;BMP280;68291;49.602;8.722;2023-05-28T13:53:40;99506.75;;;37.40
78905;BMP280;68291;49.602;8.722;2023-05-28T13:56:58;99503.69;;;37.60
78905;BMP280;68291;49.602;8.722;2023-05-28T13:59:29;99497.00;;;37.90
78905;BMP280;68291;49.602;8.722;2023-05-28T14:02:09;99485.66;;;38.20
78905;BMP280;68291;49.602;8.722;2023-05-28T14:05:12;99490.97;;;38.48
78905;BMP280;68291;49.602;8.722;2023-05-28T14:07:52;99487.97;;;38.44
78905;BMP280;68291;49.602;8.722;2023-05-28T14:10:38;99490.78;;;38.54
78905;BMP280;68291;49.602;8.722;2023-05-28T14:13:14;99478.53;;;38.63
78905;BMP280;68291;49.602;8.722;2023-05-28T14:16:05;99477.88;;;38.94
78905;BMP280;68291;49.602;8.722;2023-05-28T14:19:02;99475.75;;;38.96
78905;BMP280;68291;49.602;8.722;2023-05-28T14:21:58;99479.03;;;38.98
78905;BMP280;68291;49.602;8.722;2023-05-28T14:24:30;99478.75;;;39.15
78905;BMP280;68291;49.602;8.722;2023-05-28T14:27:21;99473.38;;;39.15
78905;BMP280;68291;49.602;8.722;2023-05-28T14:30:39;99476.47;;;39.08
78905;BMP280;68291;49.602;8.722;2023-05-28T14:33:15;99457.78;;;39.44
78905;BMP280;68291;49.602;8.722;2023-05-28T14:35:48;99465.84;;;39.65
78905;BMP280;68291;49.602;8.722;2023-05-28T14:38:55;99469.69;;;40.00
78905;BMP280;68291;49.602;8.722;2023-05-28T14:41:47;99463.72;;;40.34
78905;BMP280;68291;49.602;8.722;2023-05-28T14:44:18;99461.31;;;40.78
78905;BMP280;68291;49.602;8.722;2023-05-28T14:46:51;99470.66;;;41.07
78905;BMP280;68291;49.602;8.722;2023-05-28T14:49:49;99456.34;;;41.16
78905;BMP280;68291;49.602;8.722;2023-05-28T14:52:45;99460.41;;;41.09
78905;BMP280;68291;49.602;8.722;2023-05-28T14:55:25;99456.31;;;41.06
78905;BMP280;68291;49.602;8.722;2023-05-28T14:58:16;99460.91;;;41.01
78905;BMP280;68291;49.602;8.722;2023-05-28T15:01:01;99461.94;;;40.85
78905;BMP280;68291;49.602;8.722;2023-05-28T15:04:02;99452.63;;;40.76
78905;BMP280;68291;49.602;8.722;2023-05-28T15:06:34;99450.03;;;40.91
78905;BMP280;68291;49.602;8.722;2023-05-28T15:09:19;99452.53;;;41.02
78905;BMP280;68291;49.602;8.722;2023-05-28T15:11:50;99453.34;;;41.03
78905;BMP280;68291;49.602;8.722;2023-05-28T15:14:24;99442.47;;;40.88
78905;BMP280;68291;49.602;8.722;2023-05-28T15:17:01;99440.75;;;40.72
78905;BMP280;68291;49.602;8.722;2023-05-28T15:19:44;99438.59;;;40.74
78905;BMP280;68291;49.602;8.722;2023-05-28T15:22:18;99436.97;;;40.73
78905;BMP280;68291;49.602;8.722;2023-05-28T15:25:02;99437.03;;;40.78
78905;BMP280;68291;49.602;8.722;2023-05-28T15:27:49;99441.69;;;40.92
78905;BMP280;68291;49.602;8.722;2023-05-28T15:30:42;99438.75;;;41.04
78905;BMP280;68291;49.602;8.722;2023-05-28T15:33:38;99444.69;;;41.01
78905;BMP280;68291;49.602;8.722;2023-05-28T15:36:19;99436.53;;;40.86
78905;BMP280;68291;49.602;8.722;2023-05-28T15:39:12;99439.66;;;40.68
78905;BMP280;68291;49.602;8.722;2023-05-28T15:41:54;99439.50;;;40.44
78905;BMP280;68291;49.602;8.722;2023-05-28T15:44:46;99429.00;;;40.42
78905;BMP280;68291;49.602;8.722;2023-05-28T15:47:42;99421.25;;;40.60
78905;BMP280;68291;49.602;8.722;2023-05-28T15:50:36;99419.41;;;40.76
78905;BMP280;68291;49.602;8.722;2023-05-28T15:53:29;99421.81;;;40.67
78905;BMP280;68291;49.602;8.722;2023-05-28T15:56:23;99425.16;;;40.79
78905;BMP280;68291;49.602;8.722;2023-05-28T15:59:00;99426.56;;;40.96
78905;BMP280;68291;49.602;8.722;2023-05-28T16:01:50;99422.53;;;41.04
78905;BMP280;68291;49.602;8.722;2023-05-28T16:04:28;99427.97;;;41.14